気象予報士の航空気象 春から冬へ。

*All archives   *Admin

スポンサーサイト

上記の広告は1ヶ月以上更新のないブログに表示されています。
新しい記事を書く事で広告が消せます。
--:--  |  スポンサー広告  |  EDIT  |  Top↑

2010.03.02 (Tue)

春から冬へ。

昨日の羽田のMETAR

RJTT 010800Z 21017G27KT 9999 FEW030 SCT045 BKN150 17/09 Q1011 RMK 1CU030 4SC045 7AC150 A2986
午後5時 気温17度

その後、北風に変わり気温激減。

010815Z 27014KT 230V320 9000 FEW030 SCT045 BKN130 16/08 Q1011 RMK 1CU030 4SC045 7AC130 A2985

010817Z 33013G23KT 9000 FEW030 SCT045 BKN130 14/07 Q1011 RMK 1CU030 4SC045 7AC130 A2986

010830Z 35013KT 8000 BR FEW030 BKN040 BKN130 12/07 Q1011 RMK 1CU030 5SC040 6AC130 A2987 BR N-NE

010900Z 35010KT 6000 FEW020 BKN035 BKN050 11/08 Q1012 RMK 1CU020 5SC035 7SC050 A2989

1時間で気温が6度も下がりました。


さらに今日は

020400Z 05016KT 9999 BKN017 06/02 Q1014 RMK 7SC017 A2995

020430Z 05017KT 9999 BKN015 06/02 Q1014 RMK 7SC015 A2994

020500Z 05015KT 9999 BKN015 06/03 Q1013 RMK 7SC015 A2993

最高気温6度。

寒すぎです。


天気予報を見ていた人が、まぁほとんどでしょう。

街中ではコートや厚手のジャンパー、マフラーや手袋をした人も見かけましたが、中にはあれっと思うような薄着の人もいましたね。


これだけ気温差があると体調が追いつかなさそうですね。


体調管理と湿度管理、手洗いうがい、忘れずに。


ブログランキングに参加しています。
にほんブログ村 環境ブログ 天気・気象学へ
にほんブログ村
応援クリックをおねがします。


以下、アフィリエイトサイトです。




スポンサーサイト
22:10  |  気象・天気  |  TB(0)  |  CM(0)  |  EDIT  |  Top↑

コメントを投稿する


 管理者だけに表示  (非公開コメント投稿可能)

▲PageTop

この記事のトラックバックURL

→http://weathereucalyptus.blog115.fc2.com/tb.php/410-dc85215f
この記事にトラックバックする(FC2ブログユーザー)

この記事へのトラックバック

▲PageTop

 | BLOGTOP | 
上記広告は1ヶ月以上更新のないブログに表示されています。新しい記事を書くことで広告を消せます。